CYQH

Watson Lake Airport

Airport
ICAO code
CYQH
Summary
ICAO Region
NAM
ICAO Territory
Location

Watson Lake, Yukon,

Coordinates
60° 6' 48" N , 128° 48' 58" W
KCC
Airport BS
Non Avian Wildlife Hazards to Aircraft
Airport CFIT
Altimeter Temperature Error Correction
Airport GND
Aircraft Ground De/Anti Icing
Airport RE
Landing on Contaminated Runways
Metar
Observation
CYQH 280300Z 13003KT 100V170 20SM OVC045 M11/M14 A3019 RMK SC8 SLP282
Station
Watson Lake, Y. T.
Date/Time
2022-11-28 03:00:00
Wind direction
130°
Wind speed
03 kts
Lowest cloud amount
overcast
Temperature
-11°C
Dew point
-14°C
Humidity
78%
Weather condition
n/a

Description

Regional airport serving the town of Watson Lake, Yukon, Canada.

Climatology

Subarctic climate (Köppen climate classification Dfc) - long, usually very cold winters, and short, cool to mild summers.

Runways

Designator Length Width Surface Rops
8/26 1676 46 ASP No/No

Airport map

Aerial View

SKYbrary Partners:

Safety knowledge contributed by: